createdAt,value
2022-09-12T00:00:26.405Z,9.35
2022-09-12T00:03:17.002Z,9.32
2022-09-12T00:05:48.063Z,9.28
2022-09-12T00:08:18.241Z,9.28
2022-09-12T00:10:49.653Z,9.30
2022-09-12T00:13:19.883Z,9.30
2022-09-12T00:15:49.793Z,9.31
2022-09-12T00:18:20.291Z,9.29
2022-09-12T00:20:50.891Z,9.29
2022-09-12T00:23:21.014Z,9.30
2022-09-12T00:25:52.591Z,9.30
2022-09-12T00:28:22.593Z,9.32
2022-09-12T00:30:52.794Z,9.30
2022-09-12T00:33:22.848Z,9.30
2022-09-12T00:35:54.313Z,9.29
2022-09-12T00:38:24.241Z,9.26
2022-09-12T00:40:55.891Z,9.28
2022-09-12T00:43:40.755Z,9.31
2022-09-12T00:46:20.981Z,9.26
2022-09-12T00:48:56.083Z,9.22
2022-09-12T00:51:26.481Z,9.20
2022-09-12T00:53:59.706Z,9.26
2022-09-12T00:56:31.633Z,9.26
2022-09-12T00:59:07.041Z,9.25
2022-09-12T01:01:38.083Z,9.25
2022-09-12T01:04:08.554Z,9.22
2022-09-12T01:06:41.647Z,9.21
2022-09-12T01:09:13.865Z,9.18
2022-09-12T01:11:47.421Z,9.18
2022-09-12T01:14:19.959Z,9.19
2022-09-12T01:16:52.304Z,9.16
2022-09-12T01:19:46.523Z,9.15
2022-09-12T01:22:32.859Z,9.11
2022-09-12T01:25:13.065Z,9.09
2022-09-12T01:28:24.427Z,9.07
2022-09-12T01:31:01.753Z,9.07
2022-09-12T01:33:40.634Z,9.07
2022-09-12T01:36:26.959Z,9.08
2022-09-12T01:39:02.200Z,9.04
2022-09-12T01:41:41.397Z,9.02
2022-09-12T01:44:20.407Z,9.01
2022-09-12T01:46:59.641Z,8.99
2022-09-12T01:49:34.949Z,8.97
2022-09-12T01:52:12.957Z,8.96
2022-09-12T01:54:48.579Z,8.97
2022-09-12T01:57:25.971Z,9.02
2022-09-12T02:00:01.617Z,9.01
2022-09-12T02:02:37.177Z,9.03
2022-09-12T02:05:12.127Z,8.99
2022-09-12T02:07:47.249Z,9.02
2022-09-12T02:10:20.947Z,8.98
2022-09-12T02:12:55.029Z,8.95
2022-09-12T02:15:30.988Z,8.93
2022-09-12T02:18:04.968Z,8.94
2022-09-12T02:20:54.366Z,8.91
2022-09-12T02:23:28.847Z,8.96
2022-09-12T02:26:05.267Z,8.95
2022-09-12T02:28:39.789Z,8.95
2022-09-12T02:31:16.158Z,8.93
2022-09-12T02:33:55.233Z,8.93
2022-09-12T02:36:36.240Z,8.95
2022-09-12T02:39:06.709Z,8.90
2022-09-12T02:41:37.159Z,8.88
2022-09-12T02:44:07.778Z,8.89
2022-09-12T02:46:43.700Z,8.84
2022-09-12T02:49:15.630Z,8.87
2022-09-12T02:51:46.638Z,8.88
2022-09-12T02:54:19.237Z,8.88
2022-09-12T02:56:49.608Z,8.90
2022-09-12T02:59:23.589Z,8.94
2022-09-12T03:02:09.354Z,8.91
2022-09-12T03:05:07.228Z,8.93
2022-09-12T03:07:57.938Z,8.90
2022-09-12T03:10:36.567Z,8.88
2022-09-12T03:13:19.280Z,8.66
2022-09-12T03:16:01.898Z,8.87
2022-09-12T03:18:53.266Z,8.88
2022-09-12T03:21:33.811Z,8.89
2022-09-12T03:24:15.653Z,8.84
2022-09-12T03:26:49.976Z,8.85
2022-09-12T03:29:21.016Z,8.77
2022-09-12T03:31:53.573Z,8.77
2022-09-12T03:34:25.473Z,8.75
2022-09-12T03:36:57.604Z,8.71
2022-09-12T03:39:28.296Z,8.69
2022-09-12T03:41:58.824Z,8.65
2022-09-12T03:44:29.467Z,8.67
2022-09-12T03:46:59.585Z,8.62
2022-09-12T03:49:29.515Z,8.64
2022-09-12T03:52:01.133Z,8.65
2022-09-12T03:54:31.036Z,8.65
2022-09-12T03:57:01.255Z,8.66
2022-09-12T03:59:31.333Z,8.69
2022-09-12T04:02:01.324Z,8.66
2022-09-12T04:04:31.551Z,8.67
2022-09-12T04:07:03.152Z,8.64
2022-09-12T04:09:33.316Z,8.70
2022-09-12T04:12:03.773Z,8.72
2022-09-12T04:14:34.146Z,8.70
2022-09-12T04:17:04.505Z,8.71
2022-09-12T04:19:34.395Z,8.72
2022-09-12T04:22:06.206Z,8.73
2022-09-12T04:24:35.854Z,8.71
2022-09-12T04:27:07.804Z,8.69
2022-09-12T04:29:38.076Z,8.74
2022-09-12T04:32:08.503Z,8.74
2022-09-12T04:34:39.524Z,8.74
2022-09-12T04:37:12.024Z,8.73
2022-09-12T04:39:42.094Z,8.74
2022-09-12T04:42:12.854Z,8.74
2022-09-12T04:44:42.844Z,8.78
2022-09-12T04:47:13.157Z,8.83
2022-09-12T04:49:43.435Z,8.91
2022-09-12T04:52:14.834Z,9.00
2022-09-12T04:54:45.095Z,8.95
2022-09-12T04:57:15.034Z,8.98
2022-09-12T04:59:45.124Z,9.00
2022-09-12T05:02:15.312Z,9.10
2022-09-12T05:04:47.215Z,9.15
2022-09-12T05:07:19.531Z,9.30
2022-09-12T05:09:49.976Z,9.38
2022-09-12T05:12:20.156Z,9.39
2022-09-12T05:14:50.171Z,9.42
2022-09-12T05:17:20.316Z,9.42
2022-09-12T05:19:51.186Z,9.53
2022-09-12T05:22:23.154Z,9.67
2022-09-12T05:24:53.542Z,9.85
2022-09-12T05:27:23.603Z,9.96
2022-09-12T05:29:53.995Z,10.14
2022-09-12T05:32:24.193Z,10.27
2022-09-12T05:34:54.203Z,10.30
2022-09-12T05:37:25.584Z,10.40
2022-09-12T05:39:56.029Z,10.55
2022-09-12T05:42:26.133Z,10.69
2022-09-12T05:44:56.043Z,10.77
2022-09-12T05:47:26.275Z,10.93
2022-09-12T05:49:56.273Z,11.08
2022-09-12T05:52:27.585Z,11.17
2022-09-12T05:54:57.936Z,11.27
2022-09-12T05:57:27.986Z,11.47
2022-09-12T05:59:59.437Z,11.60
2022-09-12T06:02:29.648Z,11.69
2022-09-12T06:04:59.878Z,11.82
2022-09-12T06:07:32.335Z,12.00
2022-09-12T06:10:02.575Z,12.12
2022-09-12T06:12:32.596Z,12.22
2022-09-12T06:15:02.878Z,12.38
2022-09-12T06:17:32.816Z,12.53
2022-09-12T06:20:04.354Z,12.64
2022-09-12T06:22:36.053Z,12.71
2022-09-12T06:25:06.454Z,12.84
2022-09-12T06:27:36.563Z,13.01
2022-09-12T06:30:07.434Z,13.32
2022-09-12T06:32:37.595Z,13.64
2022-09-12T06:35:08.153Z,13.87
2022-09-12T06:37:40.996Z,14.03
2022-09-12T06:40:12.676Z,14.23
2022-09-12T06:42:42.903Z,14.48
2022-09-12T06:45:13.254Z,14.80
2022-09-12T06:47:43.306Z,15.01
2022-09-12T06:50:13.675Z,15.28
2022-09-12T06:52:45.146Z,15.61
2022-09-12T06:55:19.844Z,15.66
2022-09-12T06:57:50.913Z,15.74
2022-09-12T07:00:22.416Z,16.12
2022-09-12T07:02:57.045Z,16.37
2022-09-12T07:05:28.423Z,16.63
2022-09-12T07:07:59.864Z,16.58
2022-09-12T07:10:31.341Z,16.30
2022-09-12T07:13:01.305Z,16.21
2022-09-12T07:15:31.745Z,16.57
2022-09-12T07:18:01.593Z,16.49
2022-09-12T07:20:33.455Z,16.58
2022-09-12T07:23:05.453Z,16.73
2022-09-12T07:25:36.333Z,17.12
2022-09-12T07:28:06.556Z,16.77
2022-09-12T07:30:40.322Z,16.81
2022-09-12T07:33:10.570Z,17.06
2022-09-12T07:35:41.013Z,17.00
2022-09-12T07:38:12.471Z,16.83
2022-09-12T07:40:42.703Z,16.93
2022-09-12T07:43:12.793Z,16.92
2022-09-12T07:45:43.667Z,17.49
2022-09-12T07:48:14.223Z,17.84
2022-09-12T07:50:45.253Z,18.75
2022-09-12T07:53:16.715Z,19.21
2022-09-12T07:55:54.723Z,18.83
2022-09-12T07:58:25.527Z,19.07
2022-09-12T08:00:55.811Z,17.76
2022-09-12T08:03:25.943Z,16.95
2022-09-12T08:05:56.116Z,16.83
2022-09-12T08:08:27.714Z,17.40
2022-09-12T08:11:00.173Z,17.39
2022-09-12T08:13:30.761Z,17.98
2022-09-12T08:16:02.471Z,17.72
2022-09-12T08:18:34.235Z,18.17
2022-09-12T08:21:06.388Z,17.22
2022-09-12T08:23:37.965Z,17.78
2022-09-12T08:26:08.817Z,18.65
2022-09-12T08:28:41.056Z,18.84
2022-09-12T08:31:15.151Z,19.49
2022-09-12T08:33:46.005Z,19.72
2022-09-12T08:36:18.323Z,19.26
2022-09-12T08:38:51.636Z,18.92
2022-09-12T08:41:30.656Z,19.88
2022-09-12T08:44:24.013Z,19.97
2022-09-12T08:47:13.002Z,20.40
2022-09-12T08:49:52.675Z,21.20
2022-09-12T08:52:29.174Z,19.59
2022-09-12T08:55:01.854Z,19.62
2022-09-12T08:57:32.224Z,19.15
2022-09-12T09:00:06.565Z,19.23
2022-09-12T09:03:12.658Z,20.52
2022-09-12T09:05:52.363Z,18.89
2022-09-12T09:08:38.755Z,18.62
2022-09-12T09:11:31.163Z,18.01
2022-09-12T09:14:31.093Z,19.02
2022-09-12T09:17:03.555Z,18.80
2022-09-12T09:19:39.074Z,18.47
2022-09-12T09:22:14.759Z,18.72
2022-09-12T09:24:50.223Z,17.67
2022-09-12T09:27:47.158Z,17.09
2022-09-12T09:30:19.835Z,16.98
2022-09-12T09:32:53.945Z,18.94
2022-09-12T09:35:36.526Z,20.15
2022-09-12T09:38:20.144Z,18.57
2022-09-12T09:41:00.153Z,17.31
2022-09-12T09:43:32.729Z,17.09
2022-09-12T09:46:03.256Z,16.80
2022-09-12T09:48:35.330Z,16.87
2022-09-12T09:51:09.602Z,18.67
2022-09-12T09:53:46.963Z,19.24
2022-09-12T09:56:28.529Z,19.47
2022-09-12T09:59:10.033Z,18.64
2022-09-12T10:01:45.058Z,19.48
2022-09-12T10:04:22.074Z,18.29
2022-09-12T10:06:54.865Z,18.32
2022-09-12T10:09:27.473Z,17.99
2022-09-12T10:11:58.945Z,17.75
2022-09-12T10:14:40.736Z,18.66
2022-09-12T10:17:34.693Z,19.00
2022-09-12T10:20:22.475Z,19.23
2022-09-12T10:22:52.987Z,19.52
2022-09-12T10:25:26.505Z,18.34
2022-09-12T10:28:00.773Z,17.55
2022-09-12T10:30:32.273Z,17.76
2022-09-12T10:33:13.895Z,17.88
2022-09-12T10:35:50.467Z,18.01
2022-09-12T10:38:25.705Z,17.84
2022-09-12T10:41:03.845Z,17.81
2022-09-12T10:43:38.753Z,17.39
2022-09-12T10:46:31.066Z,17.08
2022-09-12T10:49:23.303Z,17.39
2022-09-12T10:51:54.679Z,17.52
2022-09-12T10:54:27.668Z,17.85
2022-09-12T10:57:21.946Z,17.96
2022-09-12T11:00:18.213Z,17.78
2022-09-12T11:03:17.685Z,17.22
2022-09-12T11:05:56.296Z,17.58
2022-09-12T11:08:42.665Z,17.65
2022-09-12T11:11:24.644Z,17.86
2022-09-12T11:14:11.224Z,17.73
2022-09-12T11:16:50.804Z,17.92
2022-09-12T11:19:48.201Z,17.81
2022-09-12T11:22:38.097Z,17.36
2022-09-12T11:25:33.316Z,17.63
2022-09-12T11:28:23.215Z,18.01
2022-09-12T11:31:15.240Z,18.12
2022-09-12T11:33:47.934Z,17.84
2022-09-12T11:36:43.055Z,17.89
2022-09-12T11:39:16.893Z,18.22
2022-09-12T11:41:52.813Z,18.06
2022-09-12T11:44:28.923Z,18.28
2022-09-12T11:46:59.803Z,18.44
2022-09-12T11:49:38.126Z,18.33
2022-09-12T11:52:17.699Z,18.44
2022-09-12T11:54:53.888Z,18.28
2022-09-12T11:57:32.415Z,18.43
2022-09-12T12:00:07.354Z,18.43
2022-09-12T12:02:43.965Z,18.53
2022-09-12T12:05:22.055Z,18.53
2022-09-12T12:07:58.895Z,18.57
2022-09-12T12:10:37.179Z,18.38
2022-09-12T12:13:14.334Z,18.07
2022-09-12T12:15:49.760Z,18.21
2022-09-12T12:18:22.032Z,18.06
2022-09-12T12:20:53.333Z,18.19
2022-09-12T12:23:31.395Z,18.27
2022-09-12T12:26:04.133Z,18.36
2022-09-12T12:29:01.297Z,18.37
2022-09-12T12:31:31.580Z,18.56
2022-09-12T12:34:24.414Z,18.60
2022-09-12T12:36:54.634Z,18.74
2022-09-12T12:40:01.497Z,18.53
2022-09-12T12:43:23.003Z,18.78
2022-09-12T12:46:16.175Z,18.87
2022-09-12T12:48:55.465Z,19.05
2022-09-12T12:52:01.727Z,18.85
2022-09-12T12:54:57.987Z,18.73
2022-09-12T12:57:48.818Z,18.72
2022-09-12T13:00:32.524Z,18.83
2022-09-12T13:03:12.156Z,18.67
2022-09-12T13:05:45.634Z,18.65
2022-09-12T13:08:31.982Z,18.52
2022-09-12T13:11:07.676Z,18.61
2022-09-12T13:13:43.374Z,18.58
2022-09-12T13:16:14.038Z,18.53
2022-09-12T13:18:48.058Z,18.65
2022-09-12T13:21:20.255Z,18.75
2022-09-12T13:24:03.023Z,19.21
2022-09-12T13:26:41.845Z,19.39
2022-09-12T13:29:14.226Z,19.56
2022-09-12T13:31:47.533Z,19.10
2022-09-12T13:34:22.634Z,19.07
2022-09-12T13:37:26.485Z,18.86
2022-09-12T13:40:07.729Z,18.85
2022-09-12T13:42:42.986Z,18.85
2022-09-12T13:45:21.385Z,18.73
2022-09-12T13:47:58.470Z,18.70
2022-09-12T13:50:33.963Z,18.94
2022-09-12T13:53:07.385Z,19.46
2022-09-12T13:55:40.522Z,20.44
2022-09-12T13:58:21.144Z,19.25
2022-09-12T14:01:04.196Z,18.27
2022-09-12T14:03:58.966Z,18.16
2022-09-12T14:06:36.976Z,17.89
2022-09-12T14:09:16.477Z,17.83
2022-09-12T14:11:46.534Z,17.83
2022-09-12T14:14:28.286Z,17.64
2022-09-12T14:16:59.263Z,17.49
2022-09-12T14:19:30.274Z,17.41
2022-09-12T14:22:02.408Z,17.56
2022-09-12T14:24:33.585Z,17.54
2022-09-12T14:27:03.645Z,17.62
2022-09-12T14:29:35.114Z,17.60
2022-09-12T14:32:07.237Z,17.59
2022-09-12T14:34:39.097Z,17.49
2022-09-12T14:37:10.935Z,17.39
2022-09-12T14:39:44.445Z,17.24
2022-09-12T14:42:18.247Z,17.16
2022-09-12T14:44:58.791Z,17.11
2022-09-12T14:47:40.455Z,17.09
2022-09-12T14:50:18.653Z,17.13
2022-09-12T14:53:06.468Z,17.12
2022-09-12T14:55:44.901Z,16.99
2022-09-12T14:58:26.432Z,16.88
2022-09-12T15:01:04.255Z,16.88
2022-09-12T15:03:37.113Z,16.86
2022-09-12T15:06:22.263Z,16.88
2022-09-12T15:08:55.843Z,16.85
2022-09-12T15:11:26.085Z,16.86
2022-09-12T15:13:56.905Z,16.79
2022-09-12T15:16:27.263Z,16.84
2022-09-12T15:18:57.305Z,16.76
2022-09-12T15:21:27.451Z,16.78
2022-09-12T15:23:59.124Z,16.64
2022-09-12T15:26:31.914Z,16.63
2022-09-12T15:29:02.175Z,16.55
2022-09-12T15:31:34.121Z,16.49
2022-09-12T15:34:05.073Z,16.43
2022-09-12T15:36:35.142Z,16.36
2022-09-12T15:39:07.437Z,16.37
2022-09-12T15:41:39.056Z,16.32
2022-09-12T15:44:12.713Z,16.35
2022-09-12T15:46:43.232Z,16.36
2022-09-12T15:49:13.606Z,16.17
2022-09-12T15:51:44.695Z,16.06
2022-09-12T15:54:16.663Z,16.02
2022-09-12T15:56:47.893Z,16.03
2022-09-12T15:59:21.213Z,15.95
2022-09-12T16:01:51.218Z,16.03
2022-09-12T16:04:25.605Z,16.01
2022-09-12T16:06:58.381Z,15.93
2022-09-12T16:09:30.728Z,15.89
2022-09-12T16:12:01.686Z,15.82
2022-09-12T16:14:31.646Z,15.72
2022-09-12T16:17:01.986Z,15.66
2022-09-12T16:19:31.967Z,15.59
2022-09-12T16:22:02.205Z,15.45
2022-09-12T16:24:35.041Z,15.40
2022-09-12T16:27:05.429Z,15.26
2022-09-12T16:29:36.395Z,15.16
2022-09-12T16:32:06.525Z,15.16
2022-09-12T16:34:36.712Z,15.09
2022-09-12T16:37:07.087Z,15.00
2022-09-12T16:39:38.863Z,14.86
2022-09-12T16:42:09.365Z,14.77
2022-09-12T16:44:39.654Z,14.68
2022-09-12T16:47:09.667Z,14.58
2022-09-12T16:49:40.262Z,14.44
2022-09-12T16:52:11.694Z,14.29
2022-09-12T16:54:43.066Z,14.20
2022-09-12T16:57:13.216Z,13.86
2022-09-12T16:59:43.753Z,13.74
2022-09-12T17:02:14.956Z,13.63
2022-09-12T17:04:45.284Z,13.38
2022-09-12T17:07:15.366Z,13.09
2022-09-12T17:09:48.048Z,13.08
2022-09-12T17:12:18.413Z,12.99
2022-09-12T17:14:48.292Z,12.65
2022-09-12T17:17:18.144Z,12.56
2022-09-12T17:19:48.432Z,12.62
2022-09-12T17:22:18.239Z,12.60
2022-09-12T17:24:49.693Z,12.53
2022-09-12T17:27:19.857Z,12.44
2022-09-12T17:29:49.774Z,12.45
2022-09-12T17:32:19.697Z,12.38
2022-09-12T17:34:50.997Z,12.32
2022-09-12T17:37:22.031Z,12.28
2022-09-12T17:39:53.772Z,12.21
2022-09-12T17:42:24.643Z,12.16
2022-09-12T17:44:55.965Z,12.09
2022-09-12T17:47:25.914Z,11.95
2022-09-12T17:50:14.550Z,11.58
2022-09-12T17:52:46.572Z,11.83
2022-09-12T17:55:18.225Z,11.72
2022-09-12T17:57:48.836Z,11.65
2022-09-12T18:00:39.993Z,11.60
2022-09-12T18:03:09.065Z,11.53
2022-09-12T18:05:46.325Z,11.44
2022-09-12T18:08:16.433Z,11.37
2022-09-12T18:10:48.675Z,11.43
2022-09-12T18:13:18.928Z,11.36
2022-09-12T18:15:49.834Z,11.27
2022-09-12T18:18:21.255Z,11.27
2022-09-12T18:20:55.001Z,11.22
2022-09-12T18:23:25.575Z,11.27
2022-09-12T18:26:05.271Z,11.22
2022-09-12T18:28:37.153Z,11.12
2022-09-12T18:31:14.654Z,11.12
2022-09-12T18:33:47.428Z,11.11
2022-09-12T18:36:19.072Z,11.07
2022-09-12T18:38:51.948Z,11.03
2022-09-12T18:41:26.513Z,11.01
2022-09-12T18:43:59.605Z,10.96
2022-09-12T18:46:33.055Z,10.84
2022-09-12T18:49:03.761Z,10.75
2022-09-12T18:51:36.343Z,10.74
2022-09-12T18:54:09.080Z,10.69
2022-09-12T18:56:44.391Z,10.65
2022-09-12T18:59:15.607Z,10.67
2022-09-12T19:01:46.213Z,10.68
2022-09-12T19:04:16.907Z,10.56
2022-09-12T19:06:49.016Z,10.57
2022-09-12T19:09:20.896Z,10.52
2022-09-12T19:11:53.004Z,10.44
2022-09-12T19:14:25.236Z,10.36
2022-09-12T19:16:56.258Z,10.29
2022-09-12T19:19:26.898Z,10.21
2022-09-12T19:21:58.389Z,10.21
2022-09-12T19:24:29.397Z,10.29
2022-09-12T19:27:06.074Z,10.32
2022-09-12T19:29:36.613Z,10.33
2022-09-12T19:32:09.994Z,10.31
2022-09-12T19:34:44.354Z,10.27
2022-09-12T19:37:19.004Z,10.28
2022-09-12T19:39:50.372Z,10.28
2022-09-12T19:42:23.823Z,10.18
2022-09-12T19:44:56.228Z,10.09
2022-09-12T19:47:28.292Z,10.03
2022-09-12T19:50:01.783Z,9.99
2022-09-12T19:52:35.174Z,10.00
2022-09-12T19:55:05.355Z,9.92
2022-09-12T19:57:37.663Z,9.93
2022-09-12T20:00:09.004Z,9.87
2022-09-12T20:02:39.901Z,9.79
2022-09-12T20:05:10.463Z,9.76
2022-09-12T20:07:40.676Z,9.73
2022-09-12T20:10:11.508Z,9.69
2022-09-12T20:12:43.454Z,9.67
2022-09-12T20:15:16.265Z,9.67
2022-09-12T20:17:48.276Z,9.70
2022-09-12T20:20:19.074Z,9.72
2022-09-12T20:22:52.865Z,9.69
2022-09-12T20:25:23.803Z,9.75
2022-09-12T20:27:59.969Z,9.75
2022-09-12T20:30:30.285Z,9.69
2022-09-12T20:33:00.638Z,9.70
2022-09-12T20:35:30.898Z,9.78
2022-09-12T20:38:01.165Z,9.76
2022-09-12T20:40:31.365Z,9.74
2022-09-12T20:43:03.161Z,9.74
2022-09-12T20:45:33.725Z,9.77
2022-09-12T20:48:05.106Z,9.75
2022-09-12T20:50:35.630Z,9.73
2022-09-12T20:53:06.210Z,9.68
2022-09-12T20:55:36.992Z,9.65
2022-09-12T20:58:08.980Z,9.59
2022-09-12T21:00:40.874Z,9.54
2022-09-12T21:03:10.835Z,9.45
2022-09-12T21:05:41.374Z,9.41
2022-09-12T21:08:11.693Z,9.39
2022-09-12T21:10:43.176Z,9.38
2022-09-12T21:13:15.230Z,9.35
2022-09-12T21:15:45.590Z,9.30
2022-09-12T21:18:15.632Z,9.33
2022-09-12T21:20:52.685Z,9.34
2022-09-12T21:23:23.304Z,9.33
2022-09-12T21:25:54.143Z,9.27
2022-09-12T21:28:25.554Z,9.23
2022-09-12T21:30:56.225Z,9.17
2022-09-12T21:33:26.453Z,9.11
2022-09-12T21:35:58.191Z,9.07
2022-09-12T21:38:27.753Z,9.06
2022-09-12T21:41:06.045Z,9.12
2022-09-12T21:43:37.955Z,9.13
2022-09-12T21:46:10.368Z,9.11
2022-09-12T21:48:40.524Z,9.04
2022-09-12T21:51:10.745Z,9.06
2022-09-12T21:53:40.784Z,9.07
2022-09-12T21:56:11.546Z,9.11
2022-09-12T21:58:42.959Z,9.09
2022-09-12T22:01:14.512Z,9.09
2022-09-12T22:03:45.193Z,9.02
2022-09-12T22:06:17.760Z,8.97
2022-09-12T22:08:50.735Z,9.02
2022-09-12T22:11:22.374Z,8.99
2022-09-12T22:13:53.855Z,8.85
2022-09-12T22:16:24.160Z,8.81
2022-09-12T22:18:54.293Z,8.82
2022-09-12T22:21:25.470Z,8.85
2022-09-12T22:24:12.940Z,8.85
2022-09-12T22:26:43.767Z,8.81
2022-09-12T22:29:15.685Z,8.71
2022-09-12T22:31:45.829Z,8.63
2022-09-12T22:34:16.059Z,8.60
2022-09-12T22:36:46.720Z,8.53
2022-09-12T22:39:17.140Z,8.50
2022-09-12T22:41:47.142Z,8.48
2022-09-12T22:44:19.080Z,8.43
2022-09-12T22:46:49.125Z,8.35
2022-09-12T22:49:19.363Z,8.37
2022-09-12T22:51:49.469Z,8.43
2022-09-12T22:54:19.809Z,8.39
2022-09-12T22:56:49.932Z,8.35
2022-09-12T22:59:21.741Z,8.35
2022-09-12T23:01:51.311Z,8.33
2022-09-12T23:04:21.490Z,8.33
2022-09-12T23:06:51.461Z,8.35
2022-09-12T23:09:21.751Z,8.41
2022-09-12T23:11:52.409Z,8.39
2022-09-12T23:14:24.092Z,8.38
2022-09-12T23:16:53.679Z,8.41
2022-09-12T23:19:23.702Z,8.29
2022-09-12T23:21:53.631Z,8.26
2022-09-12T23:24:23.809Z,8.23
2022-09-12T23:26:53.793Z,8.22
2022-09-12T23:29:25.250Z,8.18
2022-09-12T23:31:55.752Z,8.16
2022-09-12T23:34:25.640Z,8.16
2022-09-12T23:36:56.840Z,8.13
2022-09-12T23:39:27.049Z,8.14
2022-09-12T23:41:57.229Z,8.13
2022-09-12T23:44:28.671Z,8.14
2022-09-12T23:46:58.909Z,8.08
2022-09-12T23:49:28.821Z,8.01
2022-09-12T23:51:58.641Z,7.99
2022-09-12T23:54:28.769Z,8.00
2022-09-12T23:56:58.849Z,7.99
2022-09-12T23:59:31.269Z,7.99
